createdAt,value
2023-05-08T00:01:42.308Z,47.23
2023-05-08T00:04:10.126Z,47.39
2023-05-08T00:06:37.857Z,47.38
2023-05-08T00:09:06.056Z,47.40
2023-05-08T00:11:33.830Z,47.45
2023-05-08T00:14:01.430Z,47.67
2023-05-08T00:16:29.005Z,47.92
2023-05-08T00:18:56.757Z,47.50
2023-05-08T00:21:24.889Z,47.87
2023-05-08T00:23:52.600Z,48.07
2023-05-08T00:26:21.014Z,48.21
2023-05-08T00:28:48.641Z,48.22
2023-05-08T00:31:16.512Z,48.15
2023-05-08T00:33:44.120Z,48.46
2023-05-08T00:36:12.572Z,48.63
2023-05-08T00:38:40.161Z,48.40
2023-05-08T00:41:07.871Z,48.90
2023-05-08T00:43:37.627Z,48.87
2023-05-08T00:46:06.400Z,48.82
2023-05-08T00:48:35.411Z,49.15
2023-05-08T00:51:07.493Z,49.06
2023-05-08T00:53:38.798Z,49.53
2023-05-08T00:56:10.315Z,49.25
2023-05-08T00:58:38.271Z,49.40
2023-05-08T01:01:05.995Z,49.27
2023-05-08T01:03:37.487Z,49.96
2023-05-08T01:06:06.821Z,49.28
2023-05-08T01:08:35.069Z,49.42
2023-05-08T01:11:31.388Z,50.36
2023-05-08T01:14:16.277Z,49.85
2023-05-08T01:17:06.575Z,50.26
2023-05-08T01:20:11.685Z,50.55
2023-05-08T01:23:07.596Z,50.07
2023-05-08T01:25:54.752Z,49.50
2023-05-08T01:28:44.475Z,50.68
2023-05-08T01:31:30.743Z,49.56
2023-05-08T01:34:14.101Z,50.80
2023-05-08T01:36:48.805Z,50.30
2023-05-08T01:39:36.240Z,49.67
2023-05-08T01:42:09.604Z,50.31
2023-05-08T01:44:43.427Z,50.05
2023-05-08T01:47:12.215Z,49.98
2023-05-08T01:49:46.463Z,50.59
2023-05-08T01:52:28.571Z,50.72
2023-05-08T01:55:03.426Z,50.26
2023-05-08T01:57:34.850Z,50.00
2023-05-08T02:00:04.952Z,50.10
2023-05-08T02:02:38.481Z,49.63
2023-05-08T02:05:09.641Z,49.93
2023-05-08T02:07:38.297Z,49.70
2023-05-08T02:10:08.102Z,49.93
2023-05-08T02:12:38.273Z,49.75
2023-05-08T02:15:08.809Z,49.65
2023-05-08T02:17:39.784Z,49.83
2023-05-08T02:20:14.997Z,49.63
2023-05-08T02:22:47.162Z,49.79
2023-05-08T02:25:16.939Z,49.37
2023-05-08T02:27:47.641Z,49.05
2023-05-08T02:30:17.200Z,48.80
2023-05-08T02:32:48.088Z,49.12
2023-05-08T02:35:18.256Z,48.60
2023-05-08T02:37:51.698Z,48.77
2023-05-08T02:40:22.273Z,48.07
2023-05-08T02:42:50.507Z,48.02
2023-05-08T02:45:18.629Z,47.59
2023-05-08T02:48:08.045Z,48.24
2023-05-08T02:50:39.449Z,47.73
2023-05-08T02:53:13.020Z,47.99
2023-05-08T02:55:50.896Z,47.77
2023-05-08T02:58:49.535Z,47.91
2023-05-08T03:01:21.658Z,47.90
2023-05-08T03:03:59.956Z,47.48
2023-05-08T03:06:33.908Z,47.19
2023-05-08T03:09:03.775Z,46.70
2023-05-08T03:11:40.684Z,47.13
2023-05-08T03:14:12.658Z,46.82
2023-05-08T03:16:43.096Z,46.27
2023-05-08T03:19:23.388Z,46.55
2023-05-08T03:21:54.196Z,45.78
2023-05-08T03:24:24.775Z,45.48
2023-05-08T03:26:52.726Z,45.54
2023-05-08T03:29:20.687Z,45.28
2023-05-08T03:31:50.966Z,45.02
2023-05-08T03:34:21.021Z,44.65
2023-05-08T03:36:49.223Z,44.58
2023-05-08T03:39:17.191Z,44.18
2023-05-08T03:41:45.870Z,43.93
2023-05-08T03:44:14.347Z,43.78
2023-05-08T03:46:42.863Z,43.43
2023-05-08T03:49:12.411Z,43.52
2023-05-08T03:51:40.981Z,43.38
2023-05-08T03:54:08.964Z,42.92
2023-05-08T03:56:36.787Z,42.64
2023-05-08T03:59:17.064Z,42.51
2023-05-08T04:01:54.692Z,42.38
2023-05-08T04:04:35.269Z,42.40
2023-05-08T04:07:12.734Z,42.11
2023-05-08T04:09:58.420Z,42.00
2023-05-08T04:12:54.913Z,41.82
2023-05-08T04:15:28.063Z,41.52
2023-05-08T04:18:04.747Z,41.71
2023-05-08T04:20:33.600Z,41.11
2023-05-08T04:23:04.048Z,41.01
2023-05-08T04:25:36.580Z,40.66
2023-05-08T04:28:05.336Z,40.75
2023-05-08T04:30:35.206Z,40.50
2023-05-08T04:33:04.440Z,40.56
2023-05-08T04:35:34.006Z,40.29
2023-05-08T04:38:03.481Z,40.27
2023-05-08T04:40:31.832Z,39.86
2023-05-08T04:42:59.751Z,39.94
2023-05-08T04:45:28.049Z,39.58
2023-05-08T04:47:55.771Z,39.58
2023-05-08T04:50:23.482Z,39.18
2023-05-08T04:52:51.779Z,38.72
2023-05-08T04:55:20.041Z,38.55
2023-05-08T04:57:48.480Z,38.14
2023-05-08T05:00:16.712Z,37.97
2023-05-08T05:02:46.509Z,37.85
2023-05-08T05:05:14.400Z,37.52
2023-05-08T05:07:42.240Z,37.41
2023-05-08T05:10:11.569Z,37.23
2023-05-08T05:12:39.278Z,36.92
2023-05-08T05:15:07.563Z,36.56
2023-05-08T05:17:37.280Z,36.22
2023-05-08T05:20:06.385Z,35.95
2023-05-08T05:22:34.063Z,35.75
2023-05-08T05:25:02.196Z,35.58
2023-05-08T05:27:36.757Z,35.19
2023-05-08T05:30:07.060Z,34.76
2023-05-08T05:32:34.982Z,34.50
2023-05-08T05:35:03.121Z,34.20
2023-05-08T05:37:33.745Z,33.70
2023-05-08T05:40:01.861Z,33.68
2023-05-08T05:42:32.145Z,33.25
2023-05-08T05:45:02.005Z,33.09
2023-05-08T05:47:34.288Z,32.78
2023-05-08T05:50:03.597Z,32.55
2023-05-08T05:52:33.332Z,32.31
2023-05-08T05:55:01.454Z,32.18
2023-05-08T05:57:31.927Z,31.89
2023-05-08T06:00:00.156Z,31.37
2023-05-08T06:02:28.490Z,30.94
2023-05-08T06:04:58.072Z,30.60
2023-05-08T06:07:25.688Z,30.23
2023-05-08T06:09:53.302Z,29.91
2023-05-08T06:12:21.126Z,29.62
2023-05-08T06:14:48.809Z,29.65
2023-05-08T06:17:16.440Z,29.05
2023-05-08T06:19:43.968Z,28.87
2023-05-08T06:22:11.602Z,28.68
2023-05-08T06:24:39.130Z,28.16
2023-05-08T06:27:07.131Z,27.94
2023-05-08T06:29:34.733Z,27.02
2023-05-08T06:32:02.362Z,27.15
2023-05-08T06:34:30.002Z,26.81
2023-05-08T06:36:57.599Z,26.44
2023-05-08T06:39:25.111Z,25.82
2023-05-08T06:41:52.865Z,25.33
2023-05-08T06:44:29.471Z,24.98
2023-05-08T06:46:57.282Z,24.45
2023-05-08T06:49:24.917Z,24.11
2023-05-08T06:51:52.682Z,23.64
2023-05-08T06:54:20.461Z,23.42
2023-05-08T06:56:48.342Z,23.27
2023-05-08T06:59:15.838Z,23.70
2023-05-08T07:01:43.795Z,24.41
2023-05-08T07:04:11.405Z,24.20
2023-05-08T07:06:39.007Z,24.10
2023-05-08T07:09:06.675Z,24.08
2023-05-08T07:11:34.533Z,23.83
2023-05-08T07:14:02.101Z,23.63
2023-05-08T07:16:29.803Z,22.90
2023-05-08T07:18:57.449Z,22.19
2023-05-08T07:21:25.205Z,21.63
2023-05-08T07:23:53.953Z,21.48
2023-05-08T07:26:22.681Z,21.74
2023-05-08T07:28:51.042Z,22.50
2023-05-08T07:31:18.782Z,23.09
2023-05-08T07:33:47.218Z,22.97
2023-05-08T07:36:14.906Z,21.76
2023-05-08T07:38:42.417Z,20.84
2023-05-08T07:41:10.260Z,19.85
2023-05-08T07:43:38.117Z,19.20
2023-05-08T07:46:06.010Z,18.60
2023-05-08T07:48:33.656Z,18.14
2023-05-08T07:51:01.464Z,18.13
2023-05-08T07:53:29.174Z,18.08
2023-05-08T07:55:56.798Z,17.67
2023-05-08T07:58:24.306Z,16.95
2023-05-08T08:00:52.060Z,16.73
2023-05-08T08:03:20.076Z,16.34
2023-05-08T08:05:48.099Z,16.41
2023-05-08T08:08:16.075Z,15.74
2023-05-08T08:10:44.095Z,16.04
2023-05-08T08:13:11.833Z,16.33
2023-05-08T08:15:39.915Z,16.88
2023-05-08T08:18:07.891Z,17.58
2023-05-08T08:20:35.567Z,18.48
2023-05-08T08:23:03.507Z,18.89
2023-05-08T08:25:31.167Z,19.97
2023-05-08T08:27:58.702Z,20.81
2023-05-08T08:30:26.462Z,21.39
2023-05-08T08:32:54.142Z,21.90
2023-05-08T08:35:26.514Z,22.56
2023-05-08T08:37:54.105Z,22.62
2023-05-08T08:40:22.081Z,23.12
2023-05-08T08:42:49.761Z,23.56
2023-05-08T08:45:17.649Z,23.58
2023-05-08T08:47:45.819Z,23.88
2023-05-08T08:50:15.609Z,23.95
2023-05-08T08:52:56.542Z,24.01
2023-05-08T08:55:26.718Z,23.84
2023-05-08T08:58:13.153Z,22.45
2023-05-08T09:00:41.928Z,21.14
2023-05-08T09:03:10.650Z,20.74
2023-05-08T09:05:39.579Z,20.40
2023-05-08T09:08:07.924Z,20.50
2023-05-08T09:10:36.413Z,20.88
2023-05-08T09:13:05.112Z,21.12
2023-05-08T09:15:33.808Z,21.52
2023-05-08T09:18:02.956Z,21.72
2023-05-08T09:20:30.831Z,22.09
2023-05-08T09:23:02.823Z,22.06
2023-05-08T09:25:47.637Z,22.61
2023-05-08T09:28:20.058Z,22.79
2023-05-08T09:30:53.880Z,22.56
2023-05-08T09:33:23.365Z,22.90
2023-05-08T09:35:51.471Z,22.69
2023-05-08T09:38:38.502Z,23.07
2023-05-08T09:41:10.795Z,22.45
2023-05-08T09:43:39.235Z,21.98
2023-05-08T09:46:24.665Z,22.43
2023-05-08T09:48:57.743Z,22.16
2023-05-08T09:51:27.258Z,22.56
2023-05-08T09:53:56.877Z,22.61
2023-05-08T09:56:40.595Z,23.06
2023-05-08T09:59:28.692Z,23.25
2023-05-08T10:01:56.557Z,23.35
2023-05-08T10:04:34.328Z,23.88
2023-05-08T10:07:02.868Z,23.73
2023-05-08T10:09:39.301Z,23.77
2023-05-08T10:12:15.105Z,23.77
2023-05-08T10:14:44.730Z,23.77
2023-05-08T10:17:21.739Z,24.31
2023-05-08T10:19:55.133Z,24.34
2023-05-08T10:22:25.426Z,24.32
2023-05-08T10:24:58.297Z,24.13
2023-05-08T10:27:35.444Z,24.52
2023-05-08T10:30:04.330Z,24.12
2023-05-08T10:32:40.724Z,24.25
2023-05-08T10:35:11.402Z,24.13
2023-05-08T10:37:42.413Z,23.86
2023-05-08T10:40:11.715Z,23.41
2023-05-08T10:42:40.193Z,23.34
2023-05-08T10:45:09.719Z,22.80
2023-05-08T10:47:59.159Z,22.87
2023-05-08T10:50:50.422Z,22.31
2023-05-08T10:53:26.812Z,21.50
2023-05-08T10:55:56.224Z,20.59
2023-05-08T10:58:23.819Z,19.76
2023-05-08T11:00:57.650Z,19.19
2023-05-08T11:03:32.025Z,19.23
2023-05-08T11:06:01.831Z,18.47
2023-05-08T11:08:31.577Z,18.32
2023-05-08T11:11:07.492Z,18.14
2023-05-08T11:13:50.091Z,18.07
2023-05-08T11:16:18.366Z,18.12
2023-05-08T11:19:17.581Z,17.82
2023-05-08T11:22:23.694Z,17.75
2023-05-08T11:25:06.091Z,17.41
2023-05-08T11:27:41.573Z,17.35
2023-05-08T11:30:32.629Z,17.39
2023-05-08T11:33:06.804Z,17.43
2023-05-08T11:35:41.680Z,17.18
2023-05-08T11:38:38.835Z,17.01
2023-05-08T11:41:22.351Z,17.34
2023-05-08T11:44:09.687Z,17.34
2023-05-08T11:46:53.821Z,17.13
2023-05-08T11:49:29.377Z,16.54
2023-05-08T11:51:59.317Z,15.95
2023-05-08T11:54:30.065Z,16.30
2023-05-08T11:56:59.686Z,17.08
2023-05-08T11:59:28.103Z,17.61
2023-05-08T12:02:07.652Z,18.49
2023-05-08T12:04:47.403Z,19.26
2023-05-08T12:07:16.587Z,19.86
2023-05-08T12:09:46.414Z,20.41
2023-05-08T12:12:13.981Z,20.78
2023-05-08T12:14:41.560Z,21.23
2023-05-08T12:17:10.301Z,21.47
2023-05-08T12:19:37.870Z,21.81
2023-05-08T12:22:05.790Z,21.79
2023-05-08T12:24:33.430Z,21.76
2023-05-08T12:27:01.286Z,22.29
2023-05-08T12:29:29.107Z,22.25
2023-05-08T12:31:56.876Z,22.36
2023-05-08T12:34:24.651Z,22.70
2023-05-08T12:37:02.494Z,22.78
2023-05-08T12:39:35.824Z,23.36
2023-05-08T12:42:03.670Z,23.22
2023-05-08T12:44:31.348Z,23.34
2023-05-08T12:46:59.189Z,23.30
2023-05-08T12:49:29.026Z,23.54
2023-05-08T12:52:07.418Z,24.10
2023-05-08T12:54:41.280Z,23.67
2023-05-08T12:57:13.163Z,23.56
2023-05-08T12:59:41.948Z,23.47
2023-05-08T13:02:22.545Z,23.87
2023-05-08T13:04:56.355Z,23.55
2023-05-08T13:07:24.218Z,23.66
2023-05-08T13:10:04.904Z,23.48
2023-05-08T13:12:34.516Z,23.20
2023-05-08T13:15:04.932Z,22.94
2023-05-08T13:17:33.822Z,23.07
2023-05-08T13:20:05.198Z,22.80
2023-05-08T13:22:34.105Z,22.55
2023-05-08T13:25:01.950Z,22.23
2023-05-08T13:27:30.056Z,22.29
2023-05-08T13:29:57.670Z,22.19
2023-05-08T13:32:25.249Z,22.36
2023-05-08T13:34:55.252Z,22.11
2023-05-08T13:37:26.401Z,22.09
2023-05-08T13:39:53.887Z,22.45
2023-05-08T13:42:21.600Z,22.73
2023-05-08T13:44:49.233Z,22.67
2023-05-08T13:47:17.188Z,23.08
2023-05-08T13:49:47.014Z,23.20
2023-05-08T13:52:14.693Z,23.22
2023-05-08T13:54:42.246Z,23.57
2023-05-08T13:57:09.887Z,23.67
2023-05-08T13:59:37.565Z,23.79
2023-05-08T14:02:05.332Z,23.82
2023-05-08T14:04:33.049Z,24.15
2023-05-08T14:07:01.307Z,24.15
2023-05-08T14:09:28.939Z,24.33
2023-05-08T14:11:56.546Z,24.23
2023-05-08T14:14:24.467Z,24.24
2023-05-08T14:16:52.180Z,24.38
2023-05-08T14:19:19.865Z,24.24
2023-05-08T14:21:47.402Z,24.66
2023-05-08T14:24:15.151Z,24.50
2023-05-08T14:26:44.887Z,24.89
2023-05-08T14:29:12.762Z,24.85
2023-05-08T14:31:40.539Z,24.87
2023-05-08T14:34:08.308Z,24.86
2023-05-08T14:36:35.908Z,25.04
2023-05-08T14:39:04.277Z,25.35
2023-05-08T14:41:32.110Z,25.35
2023-05-08T14:43:59.765Z,25.31
2023-05-08T14:46:27.417Z,25.49
2023-05-08T14:48:56.895Z,25.40
2023-05-08T14:51:24.735Z,25.45
2023-05-08T14:53:52.472Z,25.59
2023-05-08T14:56:24.623Z,25.95
2023-05-08T14:58:52.565Z,26.19
2023-05-08T15:01:20.113Z,25.86
2023-05-08T15:03:53.468Z,25.77
2023-05-08T15:06:22.547Z,26.04
2023-05-08T15:08:51.901Z,26.08
2023-05-08T15:11:19.409Z,26.23
2023-05-08T15:13:46.948Z,25.89
2023-05-08T15:16:14.483Z,26.27
2023-05-08T15:18:42.069Z,25.95
2023-05-08T15:21:09.635Z,25.94
2023-05-08T15:23:37.279Z,26.23
2023-05-08T15:26:04.920Z,26.37
2023-05-08T15:28:33.274Z,26.72
2023-05-08T15:31:03.461Z,26.35
2023-05-08T15:33:31.059Z,26.58
2023-05-08T15:35:59.033Z,26.54
2023-05-08T15:38:26.857Z,26.46
2023-05-08T15:40:54.347Z,26.38
2023-05-08T15:43:22.332Z,26.70
2023-05-08T15:45:49.851Z,26.76
2023-05-08T15:48:17.482Z,26.60
2023-05-08T15:50:44.978Z,26.33
2023-05-08T15:53:12.629Z,26.50
2023-05-08T15:55:40.296Z,26.62
2023-05-08T15:58:07.983Z,26.68
2023-05-08T16:00:43.803Z,26.98
2023-05-08T16:03:12.741Z,26.62
2023-05-08T16:05:40.614Z,26.91
2023-05-08T16:08:12.523Z,27.16
2023-05-08T16:10:42.339Z,27.31
2023-05-08T16:13:10.281Z,27.13
2023-05-08T16:15:38.106Z,27.48
2023-05-08T16:18:06.373Z,27.65
2023-05-08T16:20:35.907Z,27.32
2023-05-08T16:23:03.921Z,27.43
2023-05-08T16:25:31.665Z,27.75
2023-05-08T16:27:59.581Z,27.62
2023-05-08T16:30:27.211Z,27.62
2023-05-08T16:32:55.009Z,27.71
2023-05-08T16:35:23.216Z,27.62
2023-05-08T16:37:51.018Z,27.73
2023-05-08T16:40:18.723Z,27.85
2023-05-08T16:42:47.810Z,27.63
2023-05-08T16:45:15.901Z,27.80
2023-05-08T16:47:43.898Z,27.98
2023-05-08T16:50:11.969Z,27.79
2023-05-08T16:52:39.788Z,27.66
2023-05-08T16:55:08.437Z,27.98
2023-05-08T16:57:36.134Z,27.74
2023-05-08T17:00:05.691Z,27.86
2023-05-08T17:02:36.054Z,28.00
2023-05-08T17:05:04.142Z,28.05
2023-05-08T17:07:32.921Z,27.78
2023-05-08T17:10:00.732Z,28.38
2023-05-08T17:12:28.261Z,28.17
2023-05-08T17:14:56.975Z,28.56
2023-05-08T17:17:24.603Z,28.52
2023-05-08T17:19:52.228Z,28.57
2023-05-08T17:22:20.700Z,28.69
2023-05-08T17:24:48.614Z,28.88
2023-05-08T17:27:16.288Z,28.85
2023-05-08T17:29:43.931Z,29.04
2023-05-08T17:32:11.848Z,29.02
2023-05-08T17:34:39.746Z,29.46
2023-05-08T17:37:07.323Z,29.38
2023-05-08T17:39:35.259Z,29.51
2023-05-08T17:42:03.401Z,29.86
2023-05-08T17:44:31.459Z,30.08
2023-05-08T17:46:58.922Z,30.12
2023-05-08T17:49:26.729Z,30.15
2023-05-08T17:51:54.743Z,30.51
2023-05-08T17:54:22.409Z,30.27
2023-05-08T17:56:50.129Z,30.49
2023-05-08T17:59:17.826Z,30.65
2023-05-08T18:01:45.514Z,30.71
2023-05-08T18:04:13.318Z,30.79
2023-05-08T18:06:40.864Z,31.07
2023-05-08T18:09:09.155Z,31.45
2023-05-08T18:11:36.952Z,31.49
2023-05-08T18:14:04.390Z,31.87
2023-05-08T18:16:32.146Z,31.85
2023-05-08T18:18:59.729Z,31.63
2023-05-08T18:21:28.847Z,32.02
2023-05-08T18:23:56.584Z,32.14
2023-05-08T18:26:24.181Z,32.46
2023-05-08T18:28:51.805Z,32.53
2023-05-08T18:31:19.346Z,32.53
2023-05-08T18:33:47.088Z,32.76
2023-05-08T18:36:14.665Z,33.15
2023-05-08T18:38:42.482Z,33.19
2023-05-08T18:41:10.178Z,33.31
2023-05-08T18:43:37.857Z,33.70
2023-05-08T18:46:09.820Z,34.74
2023-05-08T18:48:38.094Z,34.57
2023-05-08T18:51:06.592Z,34.58
2023-05-08T18:53:38.289Z,34.76
2023-05-08T18:56:06.604Z,34.96
2023-05-08T18:58:34.274Z,35.59
2023-05-08T19:01:02.281Z,35.63
2023-05-08T19:03:30.161Z,35.78
2023-05-08T19:05:58.194Z,36.34
2023-05-08T19:08:26.003Z,36.21
2023-05-08T19:10:53.609Z,36.49
2023-05-08T19:13:21.401Z,36.37
2023-05-08T19:15:48.970Z,37.05
2023-05-08T19:18:18.111Z,36.96
2023-05-08T19:20:45.695Z,36.90
2023-05-08T19:23:13.734Z,36.85
2023-05-08T19:25:41.455Z,37.34
2023-05-08T19:28:09.146Z,37.27
2023-05-08T19:30:36.862Z,37.10
2023-05-08T19:33:04.643Z,37.67
2023-05-08T19:35:32.147Z,37.59
2023-05-08T19:38:00.055Z,37.26
2023-05-08T19:40:27.754Z,37.54
2023-05-08T19:42:55.402Z,37.68
2023-05-08T19:45:22.970Z,37.62
2023-05-08T19:47:50.772Z,37.76
2023-05-08T19:50:19.033Z,37.84
2023-05-08T19:52:48.802Z,37.73
2023-05-08T19:55:17.001Z,37.71
2023-05-08T19:57:44.852Z,37.88
2023-05-08T20:00:13.070Z,37.95
2023-05-08T20:02:41.036Z,38.18
2023-05-08T20:07:39.797Z,38.34
2023-05-08T20:10:08.305Z,38.76
2023-05-08T20:12:36.122Z,38.60
2023-05-08T20:15:04.328Z,38.96
2023-05-08T20:17:32.503Z,39.07
2023-05-08T20:20:00.290Z,39.18
2023-05-08T20:22:28.016Z,39.26
2023-05-08T20:24:55.544Z,39.41
2023-05-08T20:27:23.218Z,39.22
2023-05-08T20:29:50.926Z,39.18
2023-05-08T20:32:19.266Z,39.17
2023-05-08T20:34:47.014Z,39.56
2023-05-08T20:37:16.115Z,39.31
2023-05-08T20:39:45.154Z,39.55
2023-05-08T20:42:13.031Z,39.47
2023-05-08T20:44:40.752Z,39.61
2023-05-08T20:47:08.529Z,39.75
2023-05-08T20:49:36.018Z,39.84
2023-05-08T20:52:05.640Z,39.67
2023-05-08T20:54:33.418Z,39.78
2023-05-08T20:57:02.137Z,39.59
2023-05-08T20:59:29.851Z,39.77
2023-05-08T21:01:57.609Z,39.59
2023-05-08T21:04:26.008Z,39.38
2023-05-08T21:06:53.796Z,39.83
2023-05-08T21:09:21.338Z,39.72
2023-05-08T21:11:49.217Z,39.71
2023-05-08T21:14:16.874Z,39.74
2023-05-08T21:19:33.133Z,40.51
2023-05-08T21:22:00.947Z,40.08
2023-05-08T21:24:28.633Z,39.91
2023-05-08T21:26:56.393Z,40.27
2023-05-08T21:29:23.991Z,40.09
2023-05-08T21:31:52.205Z,40.52
2023-05-08T21:34:22.655Z,40.30
2023-05-08T21:36:50.238Z,40.13
2023-05-08T21:39:17.843Z,40.30
2023-05-08T21:41:46.779Z,40.65
2023-05-08T21:44:15.882Z,40.00
2023-05-08T21:46:43.501Z,40.61
2023-05-08T21:49:11.147Z,40.38
2023-05-08T21:51:38.705Z,40.88
2023-05-08T21:54:06.203Z,40.48
2023-05-08T21:56:34.032Z,40.85
2023-05-08T21:59:01.624Z,41.25
2023-05-08T22:01:29.902Z,41.16
2023-05-08T22:03:57.680Z,41.20
2023-05-08T22:06:25.450Z,40.98
2023-05-08T22:08:53.481Z,41.25
2023-05-08T22:11:22.460Z,41.02
2023-05-08T22:13:50.347Z,41.07
2023-05-08T22:16:18.088Z,41.40
2023-05-08T22:18:45.717Z,41.59
2023-05-08T22:21:13.206Z,41.53
2023-05-08T22:23:40.778Z,41.69
2023-05-08T22:26:08.526Z,42.10
2023-05-08T22:28:36.213Z,41.99
2023-05-08T22:31:03.989Z,41.95
2023-05-08T22:33:34.088Z,41.82
2023-05-08T22:36:02.017Z,42.18
2023-05-08T22:38:29.614Z,41.95
2023-05-08T22:40:57.618Z,42.16
2023-05-08T22:43:25.257Z,42.49
2023-05-08T22:45:53.782Z,42.89
2023-05-08T22:48:21.707Z,42.32
2023-05-08T22:50:50.170Z,43.02
2023-05-08T22:53:18.592Z,42.77
2023-05-08T22:55:46.266Z,42.80
2023-05-08T22:58:14.113Z,43.30
2023-05-08T23:00:41.855Z,43.05
2023-05-08T23:03:09.445Z,43.32
2023-05-08T23:05:37.074Z,43.15
2023-05-08T23:08:04.972Z,43.18
2023-05-08T23:10:32.619Z,43.85
2023-05-08T23:13:00.410Z,43.79
2023-05-08T23:15:28.012Z,43.90
2023-05-08T23:17:55.895Z,43.99
2023-05-08T23:20:23.792Z,43.67
2023-05-08T23:22:51.354Z,43.59
2023-05-08T23:25:19.301Z,44.06
2023-05-08T23:27:48.336Z,43.97
2023-05-08T23:30:17.072Z,44.31
2023-05-08T23:32:44.812Z,44.20
2023-05-08T23:35:12.638Z,44.16
2023-05-08T23:37:40.405Z,44.38
2023-05-08T23:40:08.741Z,44.49
2023-05-08T23:42:37.256Z,44.26
2023-05-08T23:45:06.395Z,44.59
2023-05-08T23:47:34.203Z,44.78
2023-05-08T23:50:01.780Z,44.52
2023-05-08T23:52:31.946Z,44.57
2023-05-08T23:54:59.565Z,44.57
2023-05-08T23:57:27.070Z,44.78
2023-05-08T23:59:54.754Z,45.14
